createdAt,value
2023-02-15T00:00:28.977Z,45.87
2023-02-15T00:02:55.856Z,46.83
2023-02-15T00:05:22.735Z,45.37
2023-02-15T00:07:49.587Z,45.20
2023-02-15T00:10:17.785Z,46.10
2023-02-15T00:12:46.780Z,43.93
2023-02-15T00:15:16.214Z,47.63
2023-02-15T00:17:45.442Z,43.37
2023-02-15T00:20:14.951Z,43.43
2023-02-15T00:22:44.273Z,46.30
2023-02-15T00:25:13.441Z,48.33
2023-02-15T00:27:40.364Z,43.27
2023-02-15T00:30:08.154Z,46.10
2023-02-15T00:32:39.636Z,45.90
2023-02-15T00:35:10.225Z,43.10
2023-02-15T00:37:37.120Z,44.10
2023-02-15T00:40:07.385Z,44.90
2023-02-15T00:42:34.354Z,41.90
2023-02-15T00:45:01.209Z,41.50
2023-02-15T00:47:28.169Z,46.63
2023-02-15T00:49:55.085Z,45.90
2023-02-15T00:52:22.011Z,42.93
2023-02-15T00:54:48.924Z,45.37
2023-02-15T00:57:15.854Z,40.40
2023-02-15T00:59:42.710Z,42.37
2023-02-15T01:02:09.680Z,44.13
2023-02-15T01:04:39.014Z,39.00
2023-02-15T01:07:05.963Z,39.27
2023-02-15T01:09:32.807Z,39.60
2023-02-15T01:12:01.987Z,41.00
2023-02-15T01:14:35.986Z,41.97
2023-02-15T01:17:05.868Z,42.20
2023-02-15T01:19:36.261Z,37.67
2023-02-15T01:22:05.483Z,40.97
2023-02-15T01:24:32.861Z,40.00
2023-02-15T01:27:02.039Z,40.60
2023-02-15T01:29:28.960Z,42.53
2023-02-15T01:31:56.036Z,42.47
2023-02-15T01:34:22.977Z,41.20
2023-02-15T01:36:49.875Z,45.13
2023-02-15T01:39:19.303Z,41.07
2023-02-15T01:41:49.116Z,44.00
2023-02-15T01:44:44.043Z,43.67
2023-02-15T01:47:20.792Z,43.90
2023-02-15T01:49:48.919Z,40.60
2023-02-15T01:52:19.922Z,41.37
2023-02-15T01:54:48.820Z,44.30
2023-02-15T01:57:22.500Z,43.77
2023-02-15T01:59:54.960Z,41.97
2023-02-15T02:02:25.953Z,42.47
2023-02-15T02:05:14.285Z,44.03
2023-02-15T02:07:46.130Z,40.40
2023-02-15T02:10:19.761Z,42.57
2023-02-15T02:12:54.022Z,41.50
2023-02-15T02:15:29.508Z,37.30
2023-02-15T02:18:43.698Z,39.60
2023-02-15T02:21:59.079Z,37.67
2023-02-15T02:24:53.664Z,36.60
2023-02-15T02:27:41.020Z,39.60
2023-02-15T02:30:44.657Z,38.83
2023-02-15T02:33:35.985Z,36.43
2023-02-15T02:36:51.194Z,39.13
2023-02-15T02:39:45.924Z,38.17
2023-02-15T02:42:25.054Z,38.83
2023-02-15T02:45:00.644Z,37.27
2023-02-15T02:47:52.788Z,38.50
2023-02-15T02:50:29.142Z,35.23
2023-02-15T02:53:02.154Z,38.03
2023-02-15T02:55:43.272Z,36.60
2023-02-15T02:58:34.831Z,37.00
2023-02-15T03:01:15.936Z,36.00
2023-02-15T03:03:52.048Z,36.70
2023-02-15T03:06:34.151Z,36.03
2023-02-15T03:09:42.878Z,34.10
2023-02-15T03:12:20.324Z,34.67
2023-02-15T03:14:53.152Z,34.37
2023-02-15T03:17:28.517Z,34.70
2023-02-15T03:20:03.562Z,36.50
2023-02-15T03:22:47.601Z,36.93
2023-02-15T03:25:28.003Z,36.17
2023-02-15T03:28:02.514Z,35.97
2023-02-15T03:30:34.596Z,41.73
2023-02-15T03:33:08.384Z,39.30
2023-02-15T03:36:00.603Z,40.20
2023-02-15T03:38:41.788Z,38.50
2023-02-15T03:41:11.416Z,39.63
2023-02-15T03:44:00.704Z,37.60
2023-02-15T03:47:04.963Z,38.87
2023-02-15T03:49:53.303Z,34.73
2023-02-15T03:52:24.724Z,31.93
2023-02-15T03:54:52.406Z,34.20
2023-02-15T03:57:45.846Z,34.30
2023-02-15T04:00:43.152Z,34.90
2023-02-15T04:03:16.300Z,39.67
2023-02-15T04:05:45.121Z,33.30
2023-02-15T04:08:13.543Z,37.60
2023-02-15T04:10:57.172Z,34.53
2023-02-15T04:13:31.086Z,30.27
2023-02-15T04:16:07.977Z,33.40
2023-02-15T04:19:00.622Z,30.40
2023-02-15T04:21:50.303Z,30.57
2023-02-15T04:24:39.014Z,28.80
2023-02-15T04:27:11.222Z,30.07
2023-02-15T04:29:38.063Z,35.50
2023-02-15T04:32:05.257Z,32.77
2023-02-15T04:34:32.200Z,30.00
2023-02-15T04:36:59.131Z,31.40
2023-02-15T04:39:28.574Z,29.67
2023-02-15T04:41:57.833Z,29.00
2023-02-15T04:44:25.349Z,26.93
2023-02-15T04:46:52.252Z,26.80
2023-02-15T04:49:22.207Z,25.47
2023-02-15T04:51:51.672Z,27.23
2023-02-15T04:54:21.116Z,26.47
2023-02-15T04:56:48.065Z,25.13
2023-02-15T04:59:17.029Z,25.00
2023-02-15T05:01:46.533Z,25.13
2023-02-15T05:04:21.195Z,25.17
2023-02-15T05:06:48.271Z,23.27
2023-02-15T05:09:17.725Z,25.60
2023-02-15T05:11:47.623Z,26.57
2023-02-15T05:14:17.846Z,27.27
2023-02-15T05:16:44.702Z,25.60
2023-02-15T05:19:11.613Z,24.60
2023-02-15T05:21:41.580Z,27.03
2023-02-15T05:24:34.136Z,24.93
2023-02-15T05:27:22.136Z,29.13
2023-02-15T05:29:49.281Z,27.70
2023-02-15T05:32:18.922Z,30.13
2023-02-15T05:34:45.806Z,29.43
2023-02-15T05:37:12.742Z,30.80
2023-02-15T05:39:39.587Z,27.47
2023-02-15T05:42:06.996Z,26.60
2023-02-15T05:44:36.021Z,30.60
2023-02-15T05:47:03.980Z,29.13
2023-02-15T05:49:33.372Z,27.73
2023-02-15T05:52:03.926Z,30.97
2023-02-15T05:54:30.867Z,28.80
2023-02-15T05:56:57.869Z,28.00
2023-02-15T05:59:24.806Z,29.27
2023-02-15T06:01:51.785Z,30.33
2023-02-15T06:04:21.109Z,30.27
2023-02-15T06:06:48.062Z,34.40
2023-02-15T06:09:15.343Z,28.80
2023-02-15T06:11:42.243Z,31.43
2023-02-15T06:14:11.619Z,26.80
2023-02-15T06:16:43.065Z,29.63
2023-02-15T06:19:14.816Z,27.33
2023-02-15T06:21:41.708Z,30.20
2023-02-15T06:24:11.131Z,33.00
2023-02-15T06:26:37.978Z,28.57
2023-02-15T06:29:07.314Z,29.77
2023-02-15T06:31:34.392Z,30.23
2023-02-15T06:34:03.937Z,31.67
2023-02-15T06:36:36.393Z,28.70
2023-02-15T06:39:04.140Z,33.70
2023-02-15T06:41:33.329Z,29.53
2023-02-15T06:44:00.312Z,33.67
2023-02-15T06:46:27.582Z,30.97
2023-02-15T06:48:54.499Z,30.57
2023-02-15T06:51:23.768Z,30.17
2023-02-15T06:53:50.682Z,33.70
2023-02-15T06:56:19.730Z,29.30
2023-02-15T06:58:47.004Z,32.93
2023-02-15T07:01:16.896Z,28.67
2023-02-15T07:03:43.781Z,27.33
2023-02-15T07:06:15.454Z,26.93
2023-02-15T07:08:44.936Z,32.93
2023-02-15T07:11:30.312Z,29.60
2023-02-15T07:13:57.727Z,29.00
2023-02-15T07:16:26.864Z,28.83
2023-02-15T07:18:53.813Z,27.97
2023-02-15T07:21:20.723Z,26.47
2023-02-15T07:23:47.602Z,25.97
2023-02-15T07:26:16.788Z,27.13
2023-02-15T07:28:43.763Z,28.40
2023-02-15T07:31:13.003Z,26.53
2023-02-15T07:33:42.501Z,28.17
2023-02-15T07:36:13.147Z,25.80
2023-02-15T07:38:42.359Z,26.73
2023-02-15T07:41:12.117Z,25.03
2023-02-15T07:43:42.222Z,26.60
2023-02-15T07:46:13.405Z,25.37
2023-02-15T07:48:41.878Z,26.27
2023-02-15T07:51:11.717Z,28.07
2023-02-15T07:53:39.742Z,27.33
2023-02-15T07:56:11.806Z,26.30
2023-02-15T07:58:53.689Z,27.40
2023-02-15T08:01:30.899Z,24.30
2023-02-15T08:04:00.735Z,22.60
2023-02-15T08:06:31.804Z,26.30
2023-02-15T08:08:58.856Z,27.40
2023-02-15T08:11:30.281Z,24.63
2023-02-15T08:14:16.173Z,24.63
2023-02-15T08:17:00.385Z,22.93
2023-02-15T08:19:35.509Z,27.33
2023-02-15T08:22:13.532Z,26.83
2023-02-15T08:24:40.695Z,23.90
2023-02-15T08:27:12.146Z,23.30
2023-02-15T08:29:43.088Z,23.73
2023-02-15T08:32:13.221Z,24.20
2023-02-15T08:34:44.975Z,22.70
2023-02-15T08:37:11.937Z,24.17
2023-02-15T08:39:43.787Z,23.30
2023-02-15T08:42:10.692Z,22.93
2023-02-15T08:44:37.616Z,22.90
2023-02-15T08:47:07.071Z,24.23
2023-02-15T08:49:33.958Z,23.30
2023-02-15T08:52:05.332Z,21.83
2023-02-15T08:54:32.277Z,23.03
2023-02-15T08:57:01.428Z,23.80
2023-02-15T08:59:28.415Z,22.23
2023-02-15T09:01:56.219Z,22.43
2023-02-15T09:04:25.750Z,22.47
2023-02-15T09:06:53.255Z,21.97
2023-02-15T09:09:20.803Z,22.00
2023-02-15T09:11:54.566Z,19.17
2023-02-15T09:14:25.936Z,19.83
2023-02-15T09:16:56.315Z,21.83
2023-02-15T09:19:24.688Z,21.13
2023-02-15T09:21:53.839Z,20.90
2023-02-15T09:24:20.818Z,21.10
2023-02-15T09:26:52.484Z,23.33
2023-02-15T09:29:26.411Z,20.60
2023-02-15T09:31:54.594Z,20.13
2023-02-15T09:34:24.897Z,20.70
2023-02-15T09:36:53.078Z,19.87
2023-02-15T09:39:24.878Z,20.63
2023-02-15T09:42:35.787Z,20.87
2023-02-15T09:45:24.131Z,21.13
2023-02-15T09:48:30.621Z,20.33
2023-02-15T09:52:08.862Z,18.70
2023-02-15T09:54:53.475Z,19.87
2023-02-15T09:57:39.279Z,20.50
2023-02-15T10:00:39.506Z,19.47
2023-02-15T10:03:40.070Z,18.70
2023-02-15T10:06:32.302Z,20.70
2023-02-15T10:09:26.837Z,20.87
2023-02-15T10:12:02.458Z,20.10
2023-02-15T10:14:50.431Z,20.67
2023-02-15T10:17:41.636Z,19.70
2023-02-15T10:20:30.020Z,20.37
2023-02-15T10:23:08.957Z,20.60
2023-02-15T10:25:44.527Z,20.30
2023-02-15T10:28:52.656Z,19.67
2023-02-15T10:31:46.359Z,21.03
2023-02-15T10:34:36.814Z,19.53
2023-02-15T10:37:32.351Z,21.43
2023-02-15T10:40:23.432Z,19.57
2023-02-15T10:43:05.296Z,19.20
2023-02-15T10:45:53.532Z,21.10
2023-02-15T10:48:48.442Z,19.83
2023-02-15T10:51:51.414Z,19.93
2023-02-15T10:55:00.636Z,19.83
2023-02-15T10:58:03.475Z,20.97
2023-02-15T11:00:46.819Z,20.17
2023-02-15T11:03:43.780Z,20.63
2023-02-15T11:06:15.853Z,19.80
2023-02-15T11:08:49.140Z,18.50
2023-02-15T11:11:36.081Z,20.23
2023-02-15T11:14:15.937Z,20.20
2023-02-15T11:16:50.060Z,18.90
2023-02-15T11:19:57.937Z,18.13
2023-02-15T11:22:29.509Z,18.80
2023-02-15T11:25:01.360Z,18.50
2023-02-15T11:27:34.189Z,18.57
2023-02-15T11:30:15.900Z,18.50
2023-02-15T11:32:53.875Z,18.80
2023-02-15T11:35:45.180Z,17.50
2023-02-15T11:38:20.918Z,19.10
2023-02-15T11:41:04.816Z,19.30
2023-02-15T11:43:45.761Z,17.87
2023-02-15T11:46:14.486Z,17.70
2023-02-15T11:48:46.381Z,17.23
2023-02-15T11:51:19.072Z,17.73
2023-02-15T11:53:49.964Z,18.87
2023-02-15T11:56:22.619Z,17.70
2023-02-15T11:59:00.237Z,17.40
2023-02-15T12:01:46.023Z,16.20
2023-02-15T12:04:30.364Z,17.90
2023-02-15T12:07:16.237Z,17.90
2023-02-15T12:10:21.022Z,16.70
2023-02-15T12:12:48.237Z,17.10
2023-02-15T12:15:17.767Z,17.80
2023-02-15T12:17:54.437Z,16.60
2023-02-15T12:20:21.279Z,18.10
2023-02-15T12:22:52.480Z,17.53
2023-02-15T12:25:38.381Z,16.77
2023-02-15T12:28:26.708Z,16.53
2023-02-15T12:30:58.417Z,15.87
2023-02-15T12:33:32.288Z,16.87
2023-02-15T12:36:21.943Z,16.73
2023-02-15T12:39:15.032Z,16.60
2023-02-15T12:42:25.383Z,17.67
2023-02-15T12:45:02.238Z,17.67
2023-02-15T12:47:34.058Z,15.90
2023-02-15T12:50:24.353Z,16.70
2023-02-15T12:53:03.584Z,17.10
2023-02-15T12:55:31.812Z,17.63
2023-02-15T12:58:24.274Z,16.97
2023-02-15T13:01:04.292Z,15.17
2023-02-15T13:03:31.618Z,14.77
2023-02-15T13:06:02.167Z,15.27
2023-02-15T13:08:34.913Z,15.60
2023-02-15T13:11:11.765Z,14.93
2023-02-15T13:14:03.838Z,14.60
2023-02-15T13:16:38.582Z,15.40
2023-02-15T13:19:22.749Z,16.60
2023-02-15T13:21:53.078Z,16.47
2023-02-15T13:24:33.568Z,15.87
2023-02-15T13:27:14.600Z,16.50
2023-02-15T13:29:53.414Z,17.17
2023-02-15T13:32:39.122Z,16.57
2023-02-15T13:35:09.637Z,17.20
2023-02-15T13:38:04.197Z,14.57
2023-02-15T13:40:57.241Z,17.20
2023-02-15T13:43:35.360Z,15.77
2023-02-15T13:46:20.892Z,16.63
2023-02-15T13:49:14.238Z,15.63
2023-02-15T13:52:00.125Z,16.53
2023-02-15T13:54:32.049Z,17.27
2023-02-15T13:57:28.010Z,18.57
2023-02-15T14:00:12.807Z,17.27
2023-02-15T14:03:00.763Z,17.20
2023-02-15T14:05:33.737Z,19.80
2023-02-15T14:08:11.567Z,17.37
2023-02-15T14:11:03.624Z,18.37
2023-02-15T14:13:45.667Z,19.10
2023-02-15T14:16:38.938Z,18.93
2023-02-15T14:19:23.002Z,19.23
2023-02-15T14:22:12.027Z,17.67
2023-02-15T14:25:22.800Z,18.87
2023-02-15T14:28:11.805Z,20.30
2023-02-15T14:30:42.443Z,20.27
2023-02-15T14:33:22.353Z,20.70
2023-02-15T14:35:49.793Z,19.17
2023-02-15T14:39:32.663Z,21.23
2023-02-15T14:42:14.944Z,20.53
2023-02-15T14:44:59.519Z,19.37
2023-02-15T14:47:41.068Z,20.57
2023-02-15T14:50:38.404Z,19.47
2023-02-15T14:53:36.861Z,19.80
2023-02-15T14:56:20.865Z,21.77
2023-02-15T14:58:53.393Z,19.57
2023-02-15T15:01:36.201Z,21.30
2023-02-15T15:04:14.506Z,22.33
2023-02-15T15:07:08.926Z,21.93
2023-02-15T15:09:41.884Z,23.57
2023-02-15T15:12:27.021Z,21.27
2023-02-15T15:14:55.223Z,22.27
2023-02-15T15:17:57.269Z,22.87
2023-02-15T15:20:26.868Z,21.23
2023-02-15T15:23:16.524Z,22.70
2023-02-15T15:25:51.006Z,23.47
2023-02-15T15:28:59.717Z,23.03
2023-02-15T15:31:51.341Z,23.17
2023-02-15T15:35:02.376Z,23.10
2023-02-15T15:37:41.177Z,23.27
2023-02-15T15:40:27.674Z,24.90
2023-02-15T15:43:34.975Z,24.67
2023-02-15T15:46:13.001Z,23.80
2023-02-15T15:48:44.933Z,25.87
2023-02-15T15:51:37.792Z,24.47
2023-02-15T15:54:07.579Z,24.47
2023-02-15T15:56:36.924Z,24.40
2023-02-15T15:59:13.490Z,24.83
2023-02-15T16:01:48.422Z,25.50
2023-02-15T16:04:26.220Z,24.30
2023-02-15T16:06:53.837Z,24.87
2023-02-15T16:09:25.342Z,26.93
2023-02-15T16:12:03.518Z,26.23
2023-02-15T16:14:41.812Z,24.97
2023-02-15T16:17:21.804Z,25.67
2023-02-15T16:19:51.382Z,24.90
2023-02-15T16:22:27.585Z,25.20
2023-02-15T16:25:31.378Z,24.27
2023-02-15T16:28:07.074Z,25.40
2023-02-15T16:30:40.488Z,26.30
2023-02-15T16:33:16.950Z,25.07
2023-02-15T16:36:04.019Z,26.73
2023-02-15T16:38:59.664Z,28.03
2023-02-15T16:41:31.083Z,25.50
2023-02-15T16:44:12.337Z,25.33
2023-02-15T16:46:45.061Z,26.33
2023-02-15T16:49:30.086Z,26.87
2023-02-15T16:52:03.089Z,26.50
2023-02-15T16:54:34.738Z,25.07
2023-02-15T16:57:02.634Z,26.03
2023-02-15T16:59:40.541Z,26.00
2023-02-15T17:02:32.001Z,28.77
2023-02-15T17:05:13.000Z,28.63
2023-02-15T17:07:42.388Z,28.77
2023-02-15T17:10:37.531Z,28.00
2023-02-15T17:13:15.427Z,35.63
2023-02-15T17:16:06.878Z,35.60
2023-02-15T17:18:47.229Z,30.83
2023-02-15T17:21:32.774Z,29.63
2023-02-15T17:24:07.282Z,28.13
2023-02-15T17:26:37.647Z,29.50
2023-02-15T17:29:42.672Z,28.30
2023-02-15T17:32:28.069Z,29.47
2023-02-15T17:35:04.005Z,30.17
2023-02-15T17:37:36.755Z,28.13
2023-02-15T17:40:28.351Z,32.50
2023-02-15T17:42:58.699Z,31.43
2023-02-15T17:45:41.896Z,31.40
2023-02-15T17:48:35.887Z,30.50
2023-02-15T17:51:06.652Z,30.50
2023-02-15T17:53:34.765Z,28.40
2023-02-15T17:56:10.457Z,27.23
2023-02-15T17:58:40.548Z,27.33
2023-02-15T18:01:37.474Z,27.53
2023-02-15T18:04:23.920Z,28.23
2023-02-15T18:07:09.857Z,26.47
2023-02-15T18:09:59.848Z,28.03
2023-02-15T18:12:33.499Z,27.87
2023-02-15T18:15:01.683Z,28.13
2023-02-15T18:17:43.008Z,33.80
2023-02-15T18:20:28.427Z,28.93
2023-02-15T18:22:55.735Z,30.30
2023-02-15T18:25:25.509Z,28.17
2023-02-15T18:27:55.028Z,28.80
2023-02-15T18:30:25.578Z,28.97
2023-02-15T18:32:57.748Z,26.67
2023-02-15T18:35:33.742Z,31.30
2023-02-15T18:38:02.020Z,27.60
2023-02-15T18:40:31.440Z,29.80
2023-02-15T18:43:00.813Z,29.40
2023-02-15T18:45:33.055Z,28.97
2023-02-15T18:48:00.258Z,30.40
2023-02-15T18:50:33.377Z,30.60
2023-02-15T18:53:04.778Z,31.70
2023-02-15T18:55:37.328Z,28.53
2023-02-15T18:58:04.967Z,29.90
2023-02-15T19:00:34.749Z,28.23
2023-02-15T19:03:06.820Z,35.40
2023-02-15T19:05:34.265Z,32.67
2023-02-15T19:08:01.993Z,34.10
2023-02-15T19:10:34.453Z,32.20
2023-02-15T19:13:04.617Z,30.43
2023-02-15T19:15:31.711Z,30.80
2023-02-15T19:18:00.888Z,28.57
2023-02-15T19:20:42.911Z,30.40
2023-02-15T19:23:21.099Z,29.40
2023-02-15T19:25:49.719Z,31.00
2023-02-15T19:28:28.915Z,28.37
2023-02-15T19:30:55.899Z,29.70
2023-02-15T19:33:23.810Z,28.50
2023-02-15T19:35:56.322Z,28.77
2023-02-15T19:38:32.347Z,29.73
2023-02-15T19:41:11.496Z,29.87
2023-02-15T19:43:38.748Z,29.17
2023-02-15T19:46:05.992Z,29.17
2023-02-15T19:48:33.083Z,29.43
2023-02-15T19:51:03.744Z,29.43
2023-02-15T19:53:30.686Z,31.33
2023-02-15T19:56:00.925Z,29.90
2023-02-15T19:58:30.178Z,29.90
2023-02-15T20:00:57.074Z,27.63
2023-02-15T20:03:24.037Z,29.23
2023-02-15T20:05:50.975Z,29.10
2023-02-15T20:08:22.286Z,27.67
2023-02-15T20:10:50.202Z,29.10
2023-02-15T20:13:19.624Z,27.70
2023-02-15T20:15:51.791Z,28.13
2023-02-15T20:18:21.108Z,26.70
2023-02-15T20:20:56.213Z,26.73
2023-02-15T20:23:25.032Z,27.87
2023-02-15T20:25:54.270Z,26.30
2023-02-15T20:28:24.726Z,27.43
2023-02-15T20:30:52.564Z,25.77
2023-02-15T20:33:23.437Z,28.00
2023-02-15T20:35:51.333Z,28.33
2023-02-15T20:38:29.382Z,26.27
2023-02-15T20:41:17.699Z,28.27
2023-02-15T20:43:44.720Z,26.83
2023-02-15T20:46:11.803Z,27.43
2023-02-15T20:48:38.792Z,28.47
2023-02-15T20:51:09.336Z,27.40
2023-02-15T20:53:36.367Z,28.27
2023-02-15T20:56:03.725Z,26.83
2023-02-15T20:58:31.083Z,28.30
2023-02-15T21:00:59.399Z,27.73
2023-02-15T21:03:31.025Z,27.97
2023-02-15T21:06:01.847Z,26.00
2023-02-15T21:08:35.770Z,26.47
2023-02-15T21:11:07.856Z,26.07
2023-02-15T21:13:37.467Z,27.10
2023-02-15T21:16:04.644Z,26.20
2023-02-15T21:18:34.521Z,25.00
2023-02-15T21:21:06.364Z,24.73
2023-02-15T21:23:41.322Z,25.90
2023-02-15T21:26:19.821Z,27.47
2023-02-15T21:28:47.862Z,26.33
2023-02-15T21:31:26.428Z,24.43
2023-02-15T21:33:55.892Z,26.03
2023-02-15T21:36:25.139Z,25.17
2023-02-15T21:38:54.560Z,25.33
2023-02-15T21:41:42.429Z,24.63
2023-02-15T21:44:40.541Z,25.07
2023-02-15T21:47:47.093Z,24.60
2023-02-15T21:51:03.701Z,24.80
2023-02-15T21:53:37.327Z,24.73
2023-02-15T21:56:14.701Z,24.20
2023-02-15T21:58:41.666Z,24.00
2023-02-15T22:01:29.905Z,24.03
2023-02-15T22:03:58.722Z,23.23
2023-02-15T22:06:28.188Z,23.40
2023-02-15T22:08:55.077Z,23.67
2023-02-15T22:11:22.630Z,21.53
2023-02-15T22:13:50.724Z,23.77
2023-02-15T22:16:20.551Z,22.73
2023-02-15T22:18:48.173Z,23.53
2023-02-15T22:21:19.167Z,24.57
2023-02-15T22:23:47.148Z,22.93
2023-02-15T22:26:27.831Z,23.73
2023-02-15T22:29:01.882Z,21.50
2023-02-15T22:31:33.534Z,22.37
2023-02-15T22:34:02.899Z,22.17
2023-02-15T22:36:33.285Z,22.90
2023-02-15T22:39:00.204Z,22.87
2023-02-15T22:41:32.987Z,22.07
2023-02-15T22:44:00.214Z,22.43
2023-02-15T22:46:29.485Z,22.30
2023-02-15T22:48:58.394Z,23.07
2023-02-15T22:51:25.514Z,22.10
2023-02-15T22:53:54.551Z,23.60
2023-02-15T22:56:43.710Z,21.90
2023-02-15T22:59:24.526Z,20.43
2023-02-15T23:01:51.766Z,20.33
2023-02-15T23:04:22.337Z,20.87
2023-02-15T23:06:49.811Z,20.83
2023-02-15T23:09:17.078Z,20.67
2023-02-15T23:11:46.767Z,20.67
2023-02-15T23:14:36.246Z,20.83
2023-02-15T23:17:05.683Z,20.53
2023-02-15T23:19:35.221Z,19.57
2023-02-15T23:22:02.704Z,19.97
2023-02-15T23:24:34.531Z,20.23
2023-02-15T23:27:24.148Z,20.80
2023-02-15T23:29:53.551Z,19.50
2023-02-15T23:32:23.265Z,20.27
2023-02-15T23:34:53.314Z,21.53
2023-02-15T23:37:22.284Z,19.80
2023-02-15T23:40:10.136Z,19.67
2023-02-15T23:42:40.322Z,18.87
2023-02-15T23:45:22.758Z,20.03
2023-02-15T23:48:09.141Z,18.50
2023-02-15T23:50:37.433Z,19.50
2023-02-15T23:53:09.457Z,18.07
2023-02-15T23:55:41.416Z,20.23
2023-02-15T23:58:19.761Z,18.40
